Time;durP1;ratioP1;P1;durP2;ratioP2;P2;SDS_P1;SDS_P2;PMS_P1;PMS_P2;Temp;Humidity;BMP_temperature;BMP_pressure;BME280_temperature;BME280_humidity;BME280_pressure;Samples;Min_cycle;Max_cycle;Signal;HPM_P1;HPM_P2
2020/08/02 00:00:40;;;;;;;6.299999;5.699999;;;;;;;20.85;66.78711;95039.89;;;;
2020/08/02 00:01:49;;;;;;;6.299999;5.699999;;;;;;;20.85;66.78711;95039.89;;;;
2020/08/02 00:02:55;;;;;;;6.299999;5.699999;;;;;;;20.85;66.78711;95039.89;;;;
2020/08/02 00:04:00;;;;;;;6.299999;5.699999;;;;;;;20.85;66.78711;95039.89;;;;
2020/08/02 00:05:06;;;;;;;6.299999;5.699999;;;;;;;20.85;66.78711;95039.89;;;;
2020/08/02 00:06:14;;;;;;;6.349999;5.75;;;;;;;20.82;67.1582;95048.58;;;;
2020/08/02 00:07:24;;;;;;;6.349999;5.75;;;;;;;20.82;67.1582;95048.58;;;;
2020/08/02 00:08:30;;;;;;;6.349999;5.75;;;;;;;20.82;67.1582;95048.58;;;;
2020/08/02 00:09:36;;;;;;;6.349999;5.75;;;;;;;20.82;67.1582;95048.58;;;;
2020/08/02 00:10:41;;;;;;;6.349999;5.75;;;;;;;20.82;67.1582;95048.58;;;;
2020/08/02 00:11:46;;;;;;;6.349999;5.75;;;;;;;20.82;67.1582;95048.58;;;;
2020/08/02 00:12:54;;;;;;;6.349999;5.75;;;;;;;20.82;67.1582;95048.58;;;;
2020/08/02 00:13:59;;;;;;;6.349999;5.75;;;;;;;20.82;67.1582;95048.58;;;;
2020/08/02 00:15:06;;;;;;;6.349999;5.75;;;;;;;20.82;67.1582;95048.58;;;;
2020/08/02 00:16:14;;;;;;;6.349999;5.75;;;;;;;20.82;67.1582;95048.58;;;;
2020/08/02 00:17:20;;;;;;;5.5;5;;;;;;;20.82;67.64063;95033.48;;;;
2020/08/02 00:18:33;;;;;;;5.5;5;;;;;;;20.82;67.64063;95033.48;;;;
2020/08/02 00:19:39;;;;;;;5.5;5;;;;;;;20.82;67.64063;95033.48;;;;
2020/08/02 00:20:46;;;;;;;5.5;5;;;;;;;20.82;67.64063;95033.48;;;;
2020/08/02 00:21:54;;;;;;;5.5;5;;;;;;;20.82;67.64063;95033.48;;;;
2020/08/02 00:22:59;;;;;;;5.5;5;;;;;;;20.82;67.64063;95033.48;;;;
2020/08/02 00:24:09;;;;;;;5.5;5;;;;;;;20.82;67.64063;95033.48;;;;
2020/08/02 00:25:16;;;;;;;5.5;5;;;;;;;20.82;67.64063;95033.48;;;;
2020/08/02 00:26:24;;;;;;;5.5;5;;;;;;;20.82;67.64063;95033.48;;;;
2020/08/02 00:27:37;;;;;;;5.75;4.9;;;;;;;20.79;67.80078;95016.64;;;;
2020/08/02 00:28:43;;;;;;;5.75;4.9;;;;;;;20.79;67.80078;95016.64;;;;
2020/08/02 00:29:49;;;;;;;5.75;4.9;;;;;;;20.79;67.80078;95016.64;;;;
2020/08/02 00:30:57;;;;;;;5.75;4.9;;;;;;;20.79;67.80078;95016.64;;;;
2020/08/02 00:32:04;;;;;;;5.75;4.9;;;;;;;20.79;67.80078;95016.64;;;;
2020/08/02 00:33:15;;;;;;;5.75;4.9;;;;;;;20.79;67.80078;95016.64;;;;
2020/08/02 00:34:21;;;;;;;5.75;4.9;;;;;;;20.79;67.80078;95016.64;;;;
2020/08/02 00:35:27;;;;;;;5.75;4.9;;;;;;;20.79;67.80078;95016.64;;;;
2020/08/02 00:36:41;;;;;;;5.75;4.9;;;;;;;20.79;67.80078;95016.64;;;;
2020/08/02 00:37:47;;;;;;;5.600001;5.100001;;;;;;;20.82;67.87109;95012.89;;;;
2020/08/02 00:38:53;;;;;;;5.600001;5.100001;;;;;;;20.82;67.87109;95012.89;;;;
2020/08/02 00:40:01;;;;;;;5.600001;5.100001;;;;;;;20.82;67.87109;95012.89;;;;
2020/08/02 00:41:13;;;;;;;5.600001;5.100001;;;;;;;20.82;67.87109;95012.89;;;;
2020/08/02 00:42:27;;;;;;;5.600001;5.100001;;;;;;;20.82;67.87109;95012.89;;;;
2020/08/02 00:43:37;;;;;;;5.600001;5.100001;;;;;;;20.82;67.87109;95012.89;;;;
2020/08/02 00:44:48;;;;;;;5.600001;5.100001;;;;;;;20.82;67.87109;95012.89;;;;
2020/08/02 00:45:53;;;;;;;5.600001;5.100001;;;;;;;20.82;67.87109;95012.89;;;;
2020/08/02 00:48:09;;;;;;;5.45;4.95;;;;;;;20.77;67.88574;94992.42;;;;
2020/08/02 00:49:20;;;;;;;5.45;4.95;;;;;;;20.77;67.88574;94992.42;;;;
2020/08/02 00:50:29;;;;;;;5.45;4.95;;;;;;;20.77;67.88574;94992.42;;;;
2020/08/02 00:51:41;;;;;;;5.45;4.95;;;;;;;20.77;67.88574;94992.42;;;;
2020/08/02 00:52:53;;;;;;;5.45;4.95;;;;;;;20.77;67.88574;94992.42;;;;
2020/08/02 00:54:04;;;;;;;5.45;4.95;;;;;;;20.77;67.88574;94992.42;;;;
2020/08/02 00:55:15;;;;;;;5.45;4.95;;;;;;;20.77;67.88574;94992.42;;;;
2020/08/02 00:56:28;;;;;;;5.45;4.95;;;;;;;20.77;67.88574;94992.42;;;;
2020/08/02 00:57:40;;;;;;;5.45;4.95;;;;;;;20.77;67.88574;94992.42;;;;
2020/08/02 00:58:50;;;;;;;5.25;4.75;;;;;;;20.74;68.02246;94983.03;;;;
2020/08/02 00:59:59;;;;;;;5.25;4.75;;;;;;;20.74;68.02246;94983.03;;;;
2020/08/02 01:01:08;;;;;;;5.25;4.75;;;;;;;20.74;68.02246;94983.03;;;;
2020/08/02 01:02:15;;;;;;;5.25;4.75;;;;;;;20.74;68.02246;94983.03;;;;
2020/08/02 01:03:25;;;;;;;5.25;4.75;;;;;;;20.74;68.02246;94983.03;;;;
2020/08/02 01:04:35;;;;;;;5.25;4.75;;;;;;;20.74;68.02246;94983.03;;;;
2020/08/02 01:05:41;;;;;;;5.25;4.75;;;;;;;20.74;68.02246;94983.03;;;;
2020/08/02 01:06:55;;;;;;;5.25;4.75;;;;;;;20.74;68.02246;94983.03;;;;
2020/08/02 01:08:02;;;;;;;5.25;4.75;;;;;;;20.74;68.02246;94983.03;;;;
2020/08/02 01:09:11;;;;;;;5.25;4.75;;;;;;;20.74;68.02246;94983.03;;;;
2020/08/02 01:10:25;;;;;;;5.6;5.05;;;;;;;20.47;68.58594;94958.76;;;;
2020/08/02 01:11:33;;;;;;;5.6;5.05;;;;;;;20.47;68.58594;94958.76;;;;
2020/08/02 01:12:42;;;;;;;5.6;5.05;;;;;;;20.47;68.58594;94958.76;;;;
2020/08/02 01:13:49;;;;;;;5.6;5.05;;;;;;;20.47;68.58594;94958.76;;;;
2020/08/02 01:14:56;;;;;;;5.6;5.05;;;;;;;20.47;68.58594;94958.76;;;;
2020/08/02 01:16:03;;;;;;;5.6;5.05;;;;;;;20.47;68.58594;94958.76;;;;
2020/08/02 01:17:10;;;;;;;5.6;5.05;;;;;;;20.47;68.58594;94958.76;;;;
2020/08/02 01:18:18;;;;;;;5.6;5.05;;;;;;;20.47;68.58594;94958.76;;;;
2020/08/02 01:19:24;;;;;;;5.6;5.05;;;;;;;20.47;68.58594;94958.76;;;;
2020/08/02 01:20:35;;;;;;;5.4;4.9;;;;;;;20.31;69.12012;94945.48;;;;
2020/08/02 01:21:45;;;;;;;5.4;4.9;;;;;;;20.31;69.12012;94945.48;;;;
2020/08/02 01:23:43;;;;;;;5.4;4.9;;;;;;;20.31;69.12012;94945.48;;;;
2020/08/02 01:24:51;;;;;;;5.4;4.9;;;;;;;20.31;69.12012;94945.48;;;;
2020/08/02 01:25:59;;;;;;;5.4;4.9;;;;;;;20.31;69.12012;94945.48;;;;
2020/08/02 01:27:09;;;;;;;5.4;4.9;;;;;;;20.31;69.12012;94945.48;;;;
2020/08/02 01:28:17;;;;;;;5.4;4.9;;;;;;;20.31;69.12012;94945.48;;;;
2020/08/02 01:29:31;;;;;;;5.4;4.9;;;;;;;20.31;69.12012;94945.48;;;;
2020/08/02 01:30:39;;;;;;;6.95;5.05;;;;;;;20.2;69.83691;94944.06;;;;
2020/08/02 01:31:50;;;;;;;6.95;5.05;;;;;;;20.2;69.83691;94944.06;;;;
2020/08/02 01:33:00;;;;;;;6.95;5.05;;;;;;;20.2;69.83691;94944.06;;;;
2020/08/02 01:34:10;;;;;;;6.95;5.05;;;;;;;20.2;69.83691;94944.06;;;;
2020/08/02 01:35:27;;;;;;;6.95;5.05;;;;;;;20.2;69.83691;94944.06;;;;
2020/08/02 01:36:35;;;;;;;6.95;5.05;;;;;;;20.2;69.83691;94944.06;;;;
2020/08/02 01:37:46;;;;;;;6.95;5.05;;;;;;;20.2;69.83691;94944.06;;;;
2020/08/02 01:38:57;;;;;;;6.95;5.05;;;;;;;20.2;69.83691;94944.06;;;;
2020/08/02 01:40:35;;;;;;;6.95;5.05;;;;;;;20.2;69.83691;94944.06;;;;
2020/08/02 01:41:40;;;;;;;5.6;5.1;;;;;;;20.18;70.46875;94946.31;;;;
2020/08/02 01:42:45;;;;;;;5.6;5.1;;;;;;;20.18;70.46875;94946.31;;;;
2020/08/02 01:43:49;;;;;;;5.6;5.1;;;;;;;20.18;70.46875;94946.31;;;;
2020/08/02 01:44:57;;;;;;;5.6;5.1;;;;;;;20.18;70.46875;94946.31;;;;
2020/08/02 01:46:05;;;;;;;5.6;5.1;;;;;;;20.18;70.46875;94946.31;;;;
2020/08/02 01:47:12;;;;;;;5.6;5.1;;;;;;;20.18;70.46875;94946.31;;;;
2020/08/02 01:48:24;;;;;;;5.6;5.1;;;;;;;20.18;70.46875;94946.31;;;;
2020/08/02 01:49:33;;;;;;;5.6;5.1;;;;;;;20.18;70.46875;94946.31;;;;
2020/08/02 01:50:38;;;;;;;5.6;5.1;;;;;;;20.18;70.46875;94946.31;;;;
2020/08/02 01:51:48;;;;;;;5.600001;5.199999;;;;;;;20.18;71.00586;94947.69;;;;
2020/08/02 01:52:57;;;;;;;5.600001;5.199999;;;;;;;20.18;71.00586;94947.69;;;;
2020/08/02 01:54:05;;;;;;;5.600001;5.199999;;;;;;;20.18;71.00586;94947.69;;;;
2020/08/02 01:55:12;;;;;;;5.600001;5.199999;;;;;;;20.18;71.00586;94947.69;;;;
2020/08/02 01:56:15;;;;;;;5.600001;5.199999;;;;;;;20.18;71.00586;94947.69;;;;
2020/08/02 01:57:22;;;;;;;5.600001;5.199999;;;;;;;20.18;71.00586;94947.69;;;;
2020/08/02 01:58:28;;;;;;;5.600001;5.199999;;;;;;;20.18;71.00586;94947.69;;;;
2020/08/02 01:59:43;;;;;;;5.600001;5.199999;;;;;;;20.18;71.00586;94947.69;;;;
2020/08/02 02:00:48;;;;;;;5.600001;5.199999;;;;;;;20.18;71.00586;94947.69;;;;
2020/08/02 02:01:56;;;;;;;5.600001;5.199999;;;;;;;20.18;71.00586;94947.69;;;;
2020/08/02 02:03:00;;;;;;;5.55;5;;;;;;;20.26;71.30176;94947.92;;;;
2020/08/02 02:04:06;;;;;;;5.55;5;;;;;;;20.26;71.30176;94947.92;;;;
2020/08/02 02:05:14;;;;;;;5.55;5;;;;;;;20.26;71.30176;94947.92;;;;
2020/08/02 02:06:19;;;;;;;5.55;5;;;;;;;20.26;71.30176;94947.92;;;;
2020/08/02 02:07:30;;;;;;;5.55;5;;;;;;;20.26;71.30176;94947.92;;;;
2020/08/02 02:08:37;;;;;;;5.55;5;;;;;;;20.26;71.30176;94947.92;;;;
2020/08/02 02:09:43;;;;;;;5.55;5;;;;;;;20.26;71.30176;94947.92;;;;
2020/08/02 02:11:06;;;;;;;5.55;5;;;;;;;20.26;71.30176;94947.92;;;;
2020/08/02 02:12:18;;;;;;;5.55;5;;;;;;;20.26;71.30176;94947.92;;;;
2020/08/02 02:13:28;;;;;;;5.099999;4.599999;;;;;;;20.24;71.7041;94960.71;;;;
2020/08/02 02:14:36;;;;;;;5.099999;4.599999;;;;;;;20.24;71.7041;94960.71;;;;
2020/08/02 02:15:52;;;;;;;5.099999;4.599999;;;;;;;20.24;71.7041;94960.71;;;;
2020/08/02 02:16:58;;;;;;;5.099999;4.599999;;;;;;;20.24;71.7041;94960.71;;;;
2020/08/02 02:18:06;;;;;;;5.099999;4.599999;;;;;;;20.24;71.7041;94960.71;;;;
2020/08/02 02:19:21;;;;;;;5.099999;4.599999;;;;;;;20.24;71.7041;94960.71;;;;
2020/08/02 02:20:30;;;;;;;5.099999;4.599999;;;;;;;20.24;71.7041;94960.71;;;;
2020/08/02 02:21:35;;;;;;;5.099999;4.599999;;;;;;;20.24;71.7041;94960.71;;;;
2020/08/02 02:22:44;;;;;;;5.099999;4.599999;;;;;;;20.24;71.7041;94960.71;;;;
2020/08/02 02:23:51;;;;;;;5.75;4.85;;;;;;;20.32;71.96973;94986.07;;;;
2020/08/02 02:24:57;;;;;;;5.75;4.85;;;;;;;20.32;71.96973;94986.07;;;;
2020/08/02 02:26:03;;;;;;;5.75;4.85;;;;;;;20.32;71.96973;94986.07;;;;
2020/08/02 02:27:08;;;;;;;5.75;4.85;;;;;;;20.32;71.96973;94986.07;;;;
2020/08/02 02:28:15;;;;;;;5.75;4.85;;;;;;;20.32;71.96973;94986.07;;;;
2020/08/02 02:29:24;;;;;;;5.75;4.85;;;;;;;20.32;71.96973;94986.07;;;;
2020/08/02 02:30:32;;;;;;;5.75;4.85;;;;;;;20.32;71.96973;94986.07;;;;
2020/08/02 02:31:39;;;;;;;5.75;4.85;;;;;;;20.32;71.96973;94986.07;;;;
2020/08/02 02:33:01;;;;;;;5.75;4.85;;;;;;;20.32;71.96973;94986.07;;;;
2020/08/02 02:34:16;;;;;;;7.4;5.15;;;;;;;20.37;72.50293;94992.83;;;;
2020/08/02 02:35:26;;;;;;;7.4;5.15;;;;;;;20.37;72.50293;94992.83;;;;
2020/08/02 02:36:33;;;;;;;7.4;5.15;;;;;;;20.37;72.50293;94992.83;;;;
2020/08/02 02:37:39;;;;;;;7.4;5.15;;;;;;;20.37;72.50293;94992.83;;;;
2020/08/02 02:38:50;;;;;;;7.4;5.15;;;;;;;20.37;72.50293;94992.83;;;;
2020/08/02 02:39:58;;;;;;;7.4;5.15;;;;;;;20.37;72.50293;94992.83;;;;
2020/08/02 02:41:01;;;;;;;7.4;5.15;;;;;;;20.37;72.50293;94992.83;;;;
2020/08/02 02:42:09;;;;;;;7.4;5.15;;;;;;;20.37;72.50293;94992.83;;;;
2020/08/02 02:43:15;;;;;;;7.4;5.15;;;;;;;20.37;72.50293;94992.83;;;;
2020/08/02 02:44:22;;;;;;;7.4;5.15;;;;;;;20.37;72.50293;94992.83;;;;
2020/08/02 02:45:23;;;;;;;5.600001;5.100001;;;;;;;20.55;73.91211;94990.95;;;;
2020/08/02 02:46:33;;;;;;;5.600001;5.100001;;;;;;;20.55;73.91211;94990.95;;;;
2020/08/02 02:47:39;;;;;;;5.600001;5.100001;;;;;;;20.55;73.91211;94990.95;;;;
2020/08/02 02:48:45;;;;;;;5.600001;5.100001;;;;;;;20.55;73.91211;94990.95;;;;
2020/08/02 02:49:58;;;;;;;5.600001;5.100001;;;;;;;20.55;73.91211;94990.95;;;;
2020/08/02 02:51:06;;;;;;;5.600001;5.100001;;;;;;;20.55;73.91211;94990.95;;;;
2020/08/02 02:52:13;;;;;;;5.600001;5.100001;;;;;;;20.55;73.91211;94990.95;;;;
2020/08/02 02:53:22;;;;;;;5.600001;5.100001;;;;;;;20.55;73.91211;94990.95;;;;
2020/08/02 02:54:33;;;;;;;5.600001;5.100001;;;;;;;20.55;73.91211;94990.95;;;;
2020/08/02 02:55:46;;;;;;;5.3;4.8;;;;;;;20.64;73.92773;94981.3;;;;
2020/08/02 02:56:51;;;;;;;5.3;4.8;;;;;;;20.64;73.92773;94981.3;;;;
2020/08/02 02:57:59;;;;;;;5.3;4.8;;;;;;;20.64;73.92773;94981.3;;;;
2020/08/02 02:59:04;;;;;;;5.3;4.8;;;;;;;20.64;73.92773;94981.3;;;;
2020/08/02 03:00:15;;;;;;;5.3;4.8;;;;;;;20.64;73.92773;94981.3;;;;
2020/08/02 03:01:22;;;;;;;5.3;4.8;;;;;;;20.64;73.92773;94981.3;;;;
2020/08/02 03:02:33;;;;;;;5.3;4.8;;;;;;;20.64;73.92773;94981.3;;;;
2020/08/02 03:03:41;;;;;;;5.3;4.8;;;;;;;20.64;73.92773;94981.3;;;;
2020/08/02 03:04:48;;;;;;;5.3;4.8;;;;;;;20.64;73.92773;94981.3;;;;
2020/08/02 03:05:53;;;;;;;6.1;5.6;;;;;;;20.77;74.03613;94979.66;;;;
2020/08/02 03:07:02;;;;;;;6.1;5.6;;;;;;;20.77;74.03613;94979.66;;;;
2020/08/02 03:08:18;;;;;;;6.1;5.6;;;;;;;20.77;74.03613;94979.66;;;;
2020/08/02 03:09:24;;;;;;;6.1;5.6;;;;;;;20.77;74.03613;94979.66;;;;
2020/08/02 03:10:35;;;;;;;6.1;5.6;;;;;;;20.77;74.03613;94979.66;;;;
2020/08/02 03:11:44;;;;;;;6.1;5.6;;;;;;;20.77;74.03613;94979.66;;;;
2020/08/02 03:12:50;;;;;;;6.1;5.6;;;;;;;20.77;74.03613;94979.66;;;;
2020/08/02 03:14:03;;;;;;;6.1;5.6;;;;;;;20.77;74.03613;94979.66;;;;
2020/08/02 03:15:11;;;;;;;6.1;5.6;;;;;;;20.77;74.03613;94979.66;;;;
2020/08/02 03:16:17;;;;;;;6.1;5.6;;;;;;;20.77;74.03613;94979.66;;;;
2020/08/02 03:17:24;;;;;;;6.7;6.099999;;;;;;;20.85;73.81934;94973.44;;;;
2020/08/02 03:18:30;;;;;;;6.7;6.099999;;;;;;;20.85;73.81934;94973.44;;;;
2020/08/02 03:19:43;;;;;;;6.7;6.099999;;;;;;;20.85;73.81934;94973.44;;;;
2020/08/02 03:20:48;;;;;;;6.7;6.099999;;;;;;;20.85;73.81934;94973.44;;;;
2020/08/02 03:21:49;;;;;;;6.7;6.099999;;;;;;;20.85;73.81934;94973.44;;;;
2020/08/02 03:23:22;;;;;;;6.7;6.099999;;;;;;;20.85;73.81934;94973.44;;;;
2020/08/02 03:24:28;;;;;;;6.7;6.099999;;;;;;;20.85;73.81934;94973.44;;;;
2020/08/02 03:26:08;;;;;;;6.7;6.099999;;;;;;;20.85;73.81934;94973.44;;;;
2020/08/02 03:27:25;;;;;;;7.65;6.65;;;;;;;20.99;73.66504;94978.92;;;;
2020/08/02 03:28:32;;;;;;;7.65;6.65;;;;;;;20.99;73.66504;94978.92;;;;
2020/08/02 03:29:41;;;;;;;7.65;6.65;;;;;;;20.99;73.66504;94978.92;;;;
2020/08/02 03:30:46;;;;;;;7.65;6.65;;;;;;;20.99;73.66504;94978.92;;;;
2020/08/02 03:31:58;;;;;;;7.65;6.65;;;;;;;20.99;73.66504;94978.92;;;;
2020/08/02 03:33:05;;;;;;;7.65;6.65;;;;;;;20.99;73.66504;94978.92;;;;
2020/08/02 03:34:11;;;;;;;7.65;6.65;;;;;;;20.99;73.66504;94978.92;;;;
2020/08/02 03:35:21;;;;;;;7.65;6.65;;;;;;;20.99;73.66504;94978.92;;;;
2020/08/02 03:36:27;;;;;;;7.65;6.65;;;;;;;20.99;73.66504;94978.92;;;;
2020/08/02 03:37:39;;;;;;;7.65;6.65;;;;;;;20.99;73.66504;94978.92;;;;
2020/08/02 03:38:46;;;;;;;7.150001;6.45;;;;;;;21.02;73.83594;94972.69;;;;
2020/08/02 03:39:51;;;;;;;7.150001;6.45;;;;;;;21.02;73.83594;94972.69;;;;
2020/08/02 03:41:00;;;;;;;7.150001;6.45;;;;;;;21.02;73.83594;94972.69;;;;
2020/08/02 03:42:16;;;;;;;7.150001;6.45;;;;;;;21.02;73.83594;94972.69;;;;
2020/08/02 03:43:25;;;;;;;7.150001;6.45;;;;;;;21.02;73.83594;94972.69;;;;
2020/08/02 03:44:32;;;;;;;7.150001;6.45;;;;;;;21.02;73.83594;94972.69;;;;
2020/08/02 03:45:38;;;;;;;7.150001;6.45;;;;;;;21.02;73.83594;94972.69;;;;
2020/08/02 03:46:51;;;;;;;7.150001;6.45;;;;;;;21.02;73.83594;94972.69;;;;
2020/08/02 03:48:01;;;;;;;7.150001;6.45;;;;;;;21.02;73.83594;94972.69;;;;
2020/08/02 03:49:21;;;;;;;7.1;6.5;;;;;;;21.06;73.875;94977.97;;;;
2020/08/02 03:50:43;;;;;;;7.1;6.5;;;;;;;21.06;73.875;94977.97;;;;
2020/08/02 03:51:55;;;;;;;7.1;6.5;;;;;;;21.06;73.875;94977.97;;;;
2020/08/02 03:53:08;;;;;;;7.1;6.5;;;;;;;21.06;73.875;94977.97;;;;
2020/08/02 03:54:20;;;;;;;7.1;6.5;;;;;;;21.06;73.875;94977.97;;;;
2020/08/02 03:55:32;;;;;;;7.1;6.5;;;;;;;21.06;73.875;94977.97;;;;
2020/08/02 03:56:40;;;;;;;7.1;6.5;;;;;;;21.06;73.875;94977.97;;;;
2020/08/02 03:57:47;;;;;;;7.1;6.5;;;;;;;21.06;73.875;94977.97;;;;
2020/08/02 03:58:52;;;;;;;7.35;6.65;;;;;;;21;73.87695;94971.77;;;;
2020/08/02 03:59:57;;;;;;;7.35;6.65;;;;;;;21;73.87695;94971.77;;;;
2020/08/02 04:01:21;;;;;;;7.35;6.65;;;;;;;21;73.87695;94971.77;;;;
2020/08/02 04:02:35;;;;;;;7.35;6.65;;;;;;;21;73.87695;94971.77;;;;
2020/08/02 04:03:40;;;;;;;7.35;6.65;;;;;;;21;73.87695;94971.77;;;;
2020/08/02 04:04:49;;;;;;;7.35;6.65;;;;;;;21;73.87695;94971.77;;;;
2020/08/02 04:05:56;;;;;;;7.35;6.65;;;;;;;21;73.87695;94971.77;;;;
2020/08/02 04:07:07;;;;;;;7.35;6.65;;;;;;;21;73.87695;94971.77;;;;
2020/08/02 04:08:21;;;;;;;7.35;6.65;;;;;;;21;73.87695;94971.77;;;;
2020/08/02 04:10:16;;;;;;;8.400001;6.799999;;;;;;;21.01;73.94434;94972.02;;;;
2020/08/02 04:11:22;;;;;;;8.400001;6.799999;;;;;;;21.01;73.94434;94972.02;;;;
2020/08/02 04:12:33;;;;;;;8.400001;6.799999;;;;;;;21.01;73.94434;94972.02;;;;
2020/08/02 04:13:45;;;;;;;8.400001;6.799999;;;;;;;21.01;73.94434;94972.02;;;;
2020/08/02 04:14:51;;;;;;;8.400001;6.799999;;;;;;;21.01;73.94434;94972.02;;;;
2020/08/02 04:16:28;;;;;;;8.400001;6.799999;;;;;;;21.01;73.94434;94972.02;;;;
2020/08/02 04:17:35;;;;;;;8.400001;6.799999;;;;;;;21.01;73.94434;94972.02;;;;
2020/08/02 04:18:37;;;;;;;8.400001;6.799999;;;;;;;21.01;73.94434;94972.02;;;;
2020/08/02 04:19:48;;;;;;;8.400001;6.799999;;;;;;;21.01;73.94434;94972.02;;;;
2020/08/02 04:20:54;;;;;;;6.950001;6.299999;;;;;;;20.99;73.77637;94976.59;;;;
2020/08/02 04:22:13;;;;;;;6.950001;6.299999;;;;;;;20.99;73.77637;94976.59;;;;
2020/08/02 04:23:41;;;;;;;6.950001;6.299999;;;;;;;20.99;73.77637;94976.59;;;;
2020/08/02 04:24:54;;;;;;;6.950001;6.299999;;;;;;;20.99;73.77637;94976.59;;;;
2020/08/02 04:26:00;;;;;;;6.950001;6.299999;;;;;;;20.99;73.77637;94976.59;;;;
2020/08/02 04:27:14;;;;;;;6.950001;6.299999;;;;;;;20.99;73.77637;94976.59;;;;
2020/08/02 04:28:25;;;;;;;6.950001;6.299999;;;;;;;20.99;73.77637;94976.59;;;;
2020/08/02 04:29:30;;;;;;;6.950001;6.299999;;;;;;;20.99;73.77637;94976.59;;;;
2020/08/02 04:30:41;;;;;;;9.899999;6.849999;;;;;;;21.06;73.99707;94977.83;;;;
2020/08/02 04:31:56;;;;;;;9.899999;6.849999;;;;;;;21.06;73.99707;94977.83;;;;
2020/08/02 04:33:03;;;;;;;9.899999;6.849999;;;;;;;21.06;73.99707;94977.83;;;;
2020/08/02 04:35:11;;;;;;;9.899999;6.849999;;;;;;;21.06;73.99707;94977.83;;;;
2020/08/02 04:36:25;;;;;;;9.899999;6.849999;;;;;;;21.06;73.99707;94977.83;;;;
2020/08/02 04:37:49;;;;;;;9.899999;6.849999;;;;;;;21.06;73.99707;94977.83;;;;
2020/08/02 04:38:58;;;;;;;9.899999;6.849999;;;;;;;21.06;73.99707;94977.83;;;;
2020/08/02 04:40:07;;;;;;;9.899999;6.849999;;;;;;;21.06;73.99707;94977.83;;;;
2020/08/02 04:41:16;;;;;;;7.45;6.1;;;;;;;21.12;74.11621;94969.3;;;;
2020/08/02 04:42:23;;;;;;;7.45;6.1;;;;;;;21.12;74.11621;94969.3;;;;
2020/08/02 04:43:31;;;;;;;7.45;6.1;;;;;;;21.12;74.11621;94969.3;;;;
2020/08/02 04:44:35;;;;;;;7.45;6.1;;;;;;;21.12;74.11621;94969.3;;;;
2020/08/02 04:45:45;;;;;;;7.45;6.1;;;;;;;21.12;74.11621;94969.3;;;;
2020/08/02 04:46:50;;;;;;;7.45;6.1;;;;;;;21.12;74.11621;94969.3;;;;
2020/08/02 04:48:01;;;;;;;7.45;6.1;;;;;;;21.12;74.11621;94969.3;;;;
2020/08/02 04:49:12;;;;;;;7.45;6.1;;;;;;;21.12;74.11621;94969.3;;;;
2020/08/02 04:50:26;;;;;;;7.45;6.1;;;;;;;21.12;74.11621;94969.3;;;;
2020/08/02 04:51:41;;;;;;;7.45;6.1;;;;;;;21.12;74.11621;94969.3;;;;
2020/08/02 04:52:47;;;;;;;7.3;6.550001;;;;;;;21.23;74.09082;94980.71;;;;
2020/08/02 04:53:53;;;;;;;7.3;6.550001;;;;;;;21.23;74.09082;94980.71;;;;
2020/08/02 04:54:59;;;;;;;7.3;6.550001;;;;;;;21.23;74.09082;94980.71;;;;
2020/08/02 04:56:18;;;;;;;7.3;6.550001;;;;;;;21.23;74.09082;94980.71;;;;
2020/08/02 04:57:24;;;;;;;7.3;6.550001;;;;;;;21.23;74.09082;94980.71;;;;
2020/08/02 04:58:30;;;;;;;7.3;6.550001;;;;;;;21.23;74.09082;94980.71;;;;
2020/08/02 04:59:32;;;;;;;7.3;6.550001;;;;;;;21.23;74.09082;94980.71;;;;
2020/08/02 05:02:56;;;;;;;7.3;6.550001;;;;;;;21.23;74.09082;94980.71;;;;
2020/08/02 05:04:05;;;;;;;6.7;6;;;;;;;21.27;74.0752;94990.52;;;;
2020/08/02 05:05:12;;;;;;;6.7;6;;;;;;;21.27;74.0752;94990.52;;;;
2020/08/02 05:06:31;;;;;;;6.7;6;;;;;;;21.27;74.0752;94990.52;;;;
2020/08/02 05:07:44;;;;;;;6.7;6;;;;;;;21.27;74.0752;94990.52;;;;
2020/08/02 05:08:52;;;;;;;6.7;6;;;;;;;21.27;74.0752;94990.52;;;;
2020/08/02 05:10:15;;;;;;;6.7;6;;;;;;;21.27;74.0752;94990.52;;;;
2020/08/02 05:11:26;;;;;;;6.7;6;;;;;;;21.27;74.0752;94990.52;;;;
2020/08/02 05:12:35;;;;;;;6.7;6;;;;;;;21.27;74.0752;94990.52;;;;
2020/08/02 05:14:05;;;;;;;6.699999;6.05;;;;;;;21.39;74.00684;94987.66;;;;
2020/08/02 05:15:33;;;;;;;6.699999;6.05;;;;;;;21.39;74.00684;94987.66;;;;
2020/08/02 05:16:38;;;;;;;6.699999;6.05;;;;;;;21.39;74.00684;94987.66;;;;
2020/08/02 05:17:47;;;;;;;6.699999;6.05;;;;;;;21.39;74.00684;94987.66;;;;
2020/08/02 05:18:57;;;;;;;6.699999;6.05;;;;;;;21.39;74.00684;94987.66;;;;
2020/08/02 05:20:15;;;;;;;6.699999;6.05;;;;;;;21.39;74.00684;94987.66;;;;
2020/08/02 05:21:38;;;;;;;6.699999;6.05;;;;;;;21.39;74.00684;94987.66;;;;
2020/08/02 05:22:48;;;;;;;6.699999;6.05;;;;;;;21.39;74.00684;94987.66;;;;
2020/08/02 05:24:04;;;;;;;6.35;5.750001;;;;;;;21.49;73.57227;94988.36;;;;
2020/08/02 05:25:21;;;;;;;6.35;5.750001;;;;;;;21.49;73.57227;94988.36;;;;
2020/08/02 05:27:02;;;;;;;6.35;5.750001;;;;;;;21.49;73.57227;94988.36;;;;
2020/08/02 05:28:12;;;;;;;6.35;5.750001;;;;;;;21.49;73.57227;94988.36;;;;
2020/08/02 05:29:38;;;;;;;6.35;5.750001;;;;;;;21.49;73.57227;94988.36;;;;
2020/08/02 05:31:13;;;;;;;6.35;5.750001;;;;;;;21.49;73.57227;94988.36;;;;
2020/08/02 05:32:37;;;;;;;6.35;5.750001;;;;;;;21.49;73.57227;94988.36;;;;
2020/08/02 05:35:46;;;;;;;6.450001;5.45;;;;;;;21.73;73.29395;94982.01;;;;
2020/08/02 05:37:04;;;;;;;6.450001;5.45;;;;;;;21.73;73.29395;94982.01;;;;
2020/08/02 05:38:26;;;;;;;6.450001;5.45;;;;;;;21.73;73.29395;94982.01;;;;
2020/08/02 05:43:44;;;;;;;6.450001;5.45;;;;;;;21.73;73.29395;94982.01;;;;
2020/08/02 05:44:55;;;;;;;6.450001;5.45;;;;;;;21.73;73.29395;94982.01;;;;
2020/08/02 05:46:08;;;;;;;6.450001;5.45;;;;;;;21.73;73.29395;94982.01;;;;
2020/08/02 05:47:34;;;;;;;6.450001;5.45;;;;;;;21.73;73.29395;94982.01;;;;
2020/08/02 05:48:44;;;;;;;6.450001;5.45;;;;;;;21.73;73.29395;94982.01;;;;
2020/08/02 05:50:05;;;;;;;6.450001;5.45;;;;;;;21.73;73.29395;94982.01;;;;
2020/08/02 05:51:20;;;;;;;6.450001;5.45;;;;;;;21.73;73.29395;94982.01;;;;
2020/08/02 05:52:47;;;;;;;6.450001;5.45;;;;;;;21.73;73.29395;94982.01;;;;
2020/08/02 05:54:14;;;;;;;6.450001;5.45;;;;;;;21.73;73.29395;94982.01;;;;
2020/08/02 05:55:29;;;;;;;6.450001;5.45;;;;;;;21.73;73.29395;94982.01;;;;
2020/08/02 05:56:50;;;;;;;5.45;4.95;;;;;;;22.29;72.27539;94987.7;;;;
2020/08/02 05:58:15;;;;;;;5.45;4.95;;;;;;;22.29;72.27539;94987.7;;;;
2020/08/02 05:59:51;;;;;;;5.45;4.95;;;;;;;22.29;72.27539;94987.7;;;;
2020/08/02 06:01:13;;;;;;;5.45;4.95;;;;;;;22.29;72.27539;94987.7;;;;
2020/08/02 06:02:22;;;;;;;5.45;4.95;;;;;;;22.29;72.27539;94987.7;;;;
2020/08/02 06:05:58;;;;;;;5.45;4.95;;;;;;;22.29;72.27539;94987.7;;;;
2020/08/02 06:07:20;;;;;;;5.399999;4.299999;;;;;;;22.42;71.87793;95000.55;;;;
2020/08/02 06:08:32;;;;;;;5.399999;4.299999;;;;;;;22.42;71.87793;95000.55;;;;
2020/08/02 06:09:49;;;;;;;5.399999;4.299999;;;;;;;22.42;71.87793;95000.55;;;;
2020/08/02 06:10:53;;;;;;;5.399999;4.299999;;;;;;;22.42;71.87793;95000.55;;;;
2020/08/02 06:12:07;;;;;;;5.399999;4.299999;;;;;;;22.42;71.87793;95000.55;;;;
2020/08/02 06:13:27;;;;;;;5.399999;4.299999;;;;;;;22.42;71.87793;95000.55;;;;
2020/08/02 06:14:38;;;;;;;5.399999;4.299999;;;;;;;22.42;71.87793;95000.55;;;;
2020/08/02 06:15:46;;;;;;;5.399999;4.299999;;;;;;;22.42;71.87793;95000.55;;;;
2020/08/02 06:16:51;;;;;;;5.399999;4.299999;;;;;;;22.42;71.87793;95000.55;;;;
2020/08/02 06:18:00;;;;;;;5.1;4.6;;;;;;;22.55;71.55762;95008.45;;;;
2020/08/02 06:19:10;;;;;;;5.1;4.6;;;;;;;22.55;71.55762;95008.45;;;;
2020/08/02 06:20:20;;;;;;;5.1;4.6;;;;;;;22.55;71.55762;95008.45;;;;
2020/08/02 06:21:36;;;;;;;5.1;4.6;;;;;;;22.55;71.55762;95008.45;;;;
2020/08/02 06:22:48;;;;;;;5.1;4.6;;;;;;;22.55;71.55762;95008.45;;;;
2020/08/02 06:23:54;;;;;;;5.1;4.6;;;;;;;22.55;71.55762;95008.45;;;;
2020/08/02 06:25:05;;;;;;;5.1;4.6;;;;;;;22.55;71.55762;95008.45;;;;
2020/08/02 06:26:16;;;;;;;5.1;4.6;;;;;;;22.55;71.55762;95008.45;;;;
2020/08/02 06:27:24;;;;;;;5.1;4.6;;;;;;;22.55;71.55762;95008.45;;;;
2020/08/02 06:28:31;;;;;;;4.599999;4;;;;;;;22.58;71.47559;95015.55;;;;
2020/08/02 06:29:37;;;;;;;4.599999;4;;;;;;;22.58;71.47559;95015.55;;;;
2020/08/02 06:30:43;;;;;;;4.599999;4;;;;;;;22.58;71.47559;95015.55;;;;
2020/08/02 06:31:48;;;;;;;4.599999;4;;;;;;;22.58;71.47559;95015.55;;;;
2020/08/02 06:33:05;;;;;;;4.599999;4;;;;;;;22.58;71.47559;95015.55;;;;
2020/08/02 06:34:21;;;;;;;4.599999;4;;;;;;;22.58;71.47559;95015.55;;;;
2020/08/02 06:35:26;;;;;;;4.599999;4;;;;;;;22.58;71.47559;95015.55;;;;
2020/08/02 06:36:37;;;;;;;4.599999;4;;;;;;;22.58;71.47559;95015.55;;;;
2020/08/02 06:37:57;;;;;;;4.599999;4;;;;;;;22.58;71.47559;95015.55;;;;
2020/08/02 06:39:06;;;;;;;5.55;3.9;;;;;;;22.67;71.16016;95037.45;;;;
2020/08/02 06:40:14;;;;;;;5.55;3.9;;;;;;;22.67;71.16016;95037.45;;;;
2020/08/02 06:41:26;;;;;;;5.55;3.9;;;;;;;22.67;71.16016;95037.45;;;;
2020/08/02 06:42:31;;;;;;;5.55;3.9;;;;;;;22.67;71.16016;95037.45;;;;
2020/08/02 06:43:41;;;;;;;5.55;3.9;;;;;;;22.67;71.16016;95037.45;;;;
2020/08/02 06:44:51;;;;;;;5.55;3.9;;;;;;;22.67;71.16016;95037.45;;;;